Clio, IA (50052)

8:36 AM CDT on July 26, 2014 (GMT -0500)
Corydon IA (KIACORYD2) Elev 1089 ft | 40.77 °N, 93.34 °W | Change Station

Current weather conditions updated 1 minute ago

Clear
Clear
74.5 °F
Feels Like 73 °F
N
5.4
Wind Variable Wind from North
Gusts 6.9 mph

Today is forecast to be Warmer than yesterday.

Today
High -- | Low -- °F
--% Chance of Precip.
Yesterday
High -- | Low -- °F
Precip. -- in
6:05 AM 8:35 PM
Waning Crescent, 0% visible
Pressure 29.80 in
Visibility 8.0 miles
Clouds Clear
Heat Index 73 °F
Dew Point 71 °F
Humidity 90%
Rainfall 0.00 in
Snow Depth Not available.
UV 1 out of 12
Pollen 6.50 out of 12
Air Quality Not available.
Flu Activity Not available.
METAR KLWD 261253Z AUTO VRB03KT 8SM CLR 22/21 A2982 RMK AO2 SLP090 T02220211

More Conditions Fewer Conditions

Pressure 29.80 in
Visibility 8.0 miles
Clouds Clear
Heat Index 73 °F
Dew Point 71 °F
Humidity 90%
Rainfall 0.00 in
Snow Depth Not available.
UV 1 out of 12
Pollen 6.50 out of 12
Air Quality Not available.
Flu Activity Not available.
METAR KLWD 261253Z AUTO VRB03KT 8SM CLR 22/21 A2982 RMK AO2 SLP090 T02220211

More Conditions Fewer Conditions

10-Day Weather Forecast

Almanac

Astronomy

Jul. 26, 2014 Rise Set
Actual Time 6:05 AM CDT 8:35 PM CDT
Civil Twilight 5:33 AM CDT 9:06 PM CDT
Nautical Twilight 4:54 AM CDT 9:45 PM CDT
Astronomical Twilight 4:11 AM CDT 10:28 PM CDT
Moon 5:58 AM CDT 8:10 PM CDT
Length of Visible Light 15h 32m
Length of Day
14h 30m
Tomorrow will be 1m 52s shorter.
Waning Crescent, 0% of the Moon is Illuminated
Today
Waning Crescent
Jul 26
New
Aug 3
First Quarter
Aug 10
Full
Aug 17
Last Quarter

Today's Extremes

State Highs State Lows

Community

WunderPhotos

Upload Photos

1,737,565 photos uploaded!

Nearby

Snow Depth

Station Depth Elevation
No new snow has been reported.

Earthquake Activity

City Distance Mag. Time & Date
No recent earthquake activity has been reported nearby.
Minimum magnitude displayed is 2.5.

Coastal Water Temperatures

Place Temperature
No Stations Reporting

Nearby Weather Stations

Station Location Temp. Heat Index Dew Point Humidity Wind Precip. Elev Updated Type
MesoWest LINEVL , Lineville, IA 73 °F 71 °F - - North  at  - 0.00 in / hr 1098 ft 4:40 AM CDT MADIS
Corydon IA, Corydon, IA 74.5 °F 73 °F 71 °F 90% North  at  5.4 mph 0.00 in / hr 1089 ft 8:34 AM CDT Normal
farm, Chariton, IA 69.7 °F - 69 °F 99% SE  at  0.0 mph 0.00 in / hr 971 ft 8:35 AM CDT Rapid Fire

Show More Stations Show Fewer Stations